sensor_id;sensor_type;location;lat;lon;timestamp;P1;durP1;ratioP1;P2;durP2;ratioP2
77955;SDS011;67152;36.266;32.294;2023-07-22T00:02:03;7.25;;;3.80;;
77955;SDS011;67152;36.266;32.294;2023-07-22T00:04:30;12.73;;;3.33;;
77955;SDS011;67152;36.266;32.294;2023-07-22T00:06:56;11.57;;;3.83;;
77955;SDS011;67152;36.266;32.294;2023-07-22T00:09:22;10.13;;;4.10;;
77955;SDS011;67152;36.266;32.294;2023-07-22T00:11:50;6.97;;;3.30;;
77955;SDS011;67152;36.266;32.294;2023-07-22T00:14:16;9.23;;;3.72;;
77955;SDS011;67152;36.266;32.294;2023-07-22T00:16:42;7.78;;;3.88;;
77955;SDS011;67152;36.266;32.294;2023-07-22T00:21:36;10.48;;;3.85;;
77955;SDS011;67152;36.266;32.294;2023-07-22T00:24:02;5.85;;;4.22;;
77955;SDS011;67152;36.266;32.294;2023-07-22T00:26:30;11.48;;;4.35;;
77955;SDS011;67152;36.266;32.294;2023-07-22T00:28:56;5.70;;;3.40;;
77955;SDS011;67152;36.266;32.294;2023-07-22T00:31:23;5.28;;;2.80;;
77955;SDS011;67152;36.266;32.294;2023-07-22T00:33:49;11.15;;;4.10;;
77955;SDS011;67152;36.266;32.294;2023-07-22T00:36:16;6.97;;;4.20;;
77955;SDS011;67152;36.266;32.294;2023-07-22T00:38:43;7.85;;;4.82;;
77955;SDS011;67152;36.266;32.294;2023-07-22T00:41:09;8.63;;;4.25;;
77955;SDS011;67152;36.266;32.294;2023-07-22T00:43:37;8.05;;;3.90;;
77955;SDS011;67152;36.266;32.294;2023-07-22T00:46:04;8.60;;;4.47;;
77955;SDS011;67152;36.266;32.294;2023-07-22T00:48:31;11.40;;;4.35;;
77955;SDS011;67152;36.266;32.294;2023-07-22T00:50:58;7.90;;;3.58;;
77955;SDS011;67152;36.266;32.294;2023-07-22T00:53:24;9.75;;;4.43;;
77955;SDS011;67152;36.266;32.294;2023-07-22T00:58:17;5.50;;;3.50;;
77955;SDS011;67152;36.266;32.294;2023-07-22T01:00:44;18.77;;;3.40;;
77955;SDS011;67152;36.266;32.294;2023-07-22T01:03:10;10.82;;;4.13;;
77955;SDS011;67152;36.266;32.294;2023-07-22T01:05:36;17.60;;;4.30;;
77955;SDS011;67152;36.266;32.294;2023-07-22T01:08:03;5.60;;;3.58;;
77955;SDS011;67152;36.266;32.294;2023-07-22T01:10:30;6.22;;;3.90;;
77955;SDS011;67152;36.266;32.294;2023-07-22T01:12:56;10.32;;;3.85;;
77955;SDS011;67152;36.266;32.294;2023-07-22T01:15:24;7.63;;;4.40;;
77955;SDS011;67152;36.266;32.294;2023-07-22T01:17:50;10.30;;;3.55;;
77955;SDS011;67152;36.266;32.294;2023-07-22T01:20:17;15.20;;;3.92;;
77955;SDS011;67152;36.266;32.294;2023-07-22T01:22:51;14.13;;;3.90;;
77955;SDS011;67152;36.266;32.294;2023-07-22T01:25:19;6.38;;;3.42;;
77955;SDS011;67152;36.266;32.294;2023-07-22T01:27:50;9.93;;;4.18;;
77955;SDS011;67152;36.266;32.294;2023-07-22T01:30:17;17.90;;;4.50;;
77955;SDS011;67152;36.266;32.294;2023-07-22T01:32:46;16.95;;;3.97;;
77955;SDS011;67152;36.266;32.294;2023-07-22T01:35:12;8.32;;;4.07;;
77955;SDS011;67152;36.266;32.294;2023-07-22T01:37:39;13.13;;;3.60;;
77955;SDS011;67152;36.266;32.294;2023-07-22T01:42:38;8.23;;;3.63;;
77955;SDS011;67152;36.266;32.294;2023-07-22T01:45:06;10.25;;;3.80;;
77955;SDS011;67152;36.266;32.294;2023-07-22T01:47:34;9.00;;;4.03;;
77955;SDS011;67152;36.266;32.294;2023-07-22T01:50:02;11.18;;;3.60;;
77955;SDS011;67152;36.266;32.294;2023-07-22T01:52:29;10.57;;;3.58;;
77955;SDS011;67152;36.266;32.294;2023-07-22T01:54:55;10.43;;;3.30;;
77955;SDS011;67152;36.266;32.294;2023-07-22T01:57:22;9.93;;;4.03;;
77955;SDS011;67152;36.266;32.294;2023-07-22T01:59:48;10.43;;;4.13;;
77955;SDS011;67152;36.266;32.294;2023-07-22T02:02:15;9.48;;;4.30;;
77955;SDS011;67152;36.266;32.294;2023-07-22T02:04:41;11.77;;;3.58;;
77955;SDS011;67152;36.266;32.294;2023-07-22T02:07:08;11.32;;;3.65;;
77955;SDS011;67152;36.266;32.294;2023-07-22T02:09:34;9.57;;;3.97;;
77955;SDS011;67152;36.266;32.294;2023-07-22T02:12:01;10.20;;;4.25;;
77955;SDS011;67152;36.266;32.294;2023-07-22T02:16:54;12.98;;;3.72;;
77955;SDS011;67152;36.266;32.294;2023-07-22T02:19:21;10.07;;;3.70;;
77955;SDS011;67152;36.266;32.294;2023-07-22T02:21:47;11.15;;;4.03;;
77955;SDS011;67152;36.266;32.294;2023-07-22T02:24:14;15.10;;;4.25;;
77955;SDS011;67152;36.266;32.294;2023-07-22T02:26:41;11.93;;;4.20;;
77955;SDS011;67152;36.266;32.294;2023-07-22T02:29:08;11.68;;;3.78;;
77955;SDS011;67152;36.266;32.294;2023-07-22T02:31:34;10.25;;;3.67;;
77955;SDS011;67152;36.266;32.294;2023-07-22T02:34:01;11.90;;;4.05;;
77955;SDS011;67152;36.266;32.294;2023-07-22T02:36:27;8.68;;;3.85;;
77955;SDS011;67152;36.266;32.294;2023-07-22T02:38:53;6.78;;;3.50;;
77955;SDS011;67152;36.266;32.294;2023-07-22T02:41:20;13.47;;;4.00;;
77955;SDS011;67152;36.266;32.294;2023-07-22T02:43:47;10.98;;;3.78;;
77955;SDS011;67152;36.266;32.294;2023-07-22T02:46:13;7.68;;;3.53;;
77955;SDS011;67152;36.266;32.294;2023-07-22T02:48:40;9.02;;;3.97;;
77955;SDS011;67152;36.266;32.294;2023-07-22T02:51:07;9.75;;;4.07;;
77955;SDS011;67152;36.266;32.294;2023-07-22T02:53:35;13.82;;;3.70;;
77955;SDS011;67152;36.266;32.294;2023-07-22T02:56:04;18.15;;;5.03;;
77955;SDS011;67152;36.266;32.294;2023-07-22T02:58:34;13.43;;;3.67;;
77955;SDS011;67152;36.266;32.294;2023-07-22T03:01:03;11.60;;;3.78;;
77955;SDS011;67152;36.266;32.294;2023-07-22T03:03:30;12.25;;;4.50;;
77955;SDS011;67152;36.266;32.294;2023-07-22T03:05:59;18.55;;;4.90;;
77955;SDS011;67152;36.266;32.294;2023-07-22T03:08:27;10.65;;;4.40;;
77955;SDS011;67152;36.266;32.294;2023-07-22T03:10:53;9.25;;;4.60;;
77955;SDS011;67152;36.266;32.294;2023-07-22T03:13:19;18.23;;;5.38;;
77955;SDS011;67152;36.266;32.294;2023-07-22T03:15:46;16.30;;;5.07;;
77955;SDS011;67152;36.266;32.294;2023-07-22T03:18:13;13.50;;;4.40;;
77955;SDS011;67152;36.266;32.294;2023-07-22T03:20:39;17.13;;;4.53;;
77955;SDS011;67152;36.266;32.294;2023-07-22T03:23:07;14.77;;;4.68;;
77955;SDS011;67152;36.266;32.294;2023-07-22T03:25:34;11.10;;;3.83;;
77955;SDS011;67152;36.266;32.294;2023-07-22T03:28:05;19.73;;;5.57;;
77955;SDS011;67152;36.266;32.294;2023-07-22T03:30:32;12.40;;;5.05;;
77955;SDS011;67152;36.266;32.294;2023-07-22T03:32:59;11.05;;;4.43;;
77955;SDS011;67152;36.266;32.294;2023-07-22T03:40:19;11.77;;;3.83;;
77955;SDS011;67152;36.266;32.294;2023-07-22T03:42:46;24.58;;;5.15;;
77955;SDS011;67152;36.266;32.294;2023-07-22T03:45:14;10.23;;;4.18;;
77955;SDS011;67152;36.266;32.294;2023-07-22T03:47:40;7.78;;;4.38;;
77955;SDS011;67152;36.266;32.294;2023-07-22T03:50:07;11.93;;;5.13;;
77955;SDS011;67152;36.266;32.294;2023-07-22T03:52:34;9.07;;;4.88;;
77955;SDS011;67152;36.266;32.294;2023-07-22T03:55:01;14.13;;;5.80;;
77955;SDS011;67152;36.266;32.294;2023-07-22T03:57:29;11.98;;;5.47;;
77955;SDS011;67152;36.266;32.294;2023-07-22T03:59:55;50.17;;;6.95;;
77955;SDS011;67152;36.266;32.294;2023-07-22T04:02:22;15.18;;;5.25;;
77955;SDS011;67152;36.266;32.294;2023-07-22T04:04:53;28.10;;;4.97;;
77955;SDS011;67152;36.266;32.294;2023-07-22T04:07:21;18.08;;;5.05;;
77955;SDS011;67152;36.266;32.294;2023-07-22T04:09:48;11.15;;;5.50;;
77955;SDS011;67152;36.266;32.294;2023-07-22T04:12:15;30.13;;;4.90;;
77955;SDS011;67152;36.266;32.294;2023-07-22T04:14:42;21.35;;;5.15;;
77955;SDS011;67152;36.266;32.294;2023-07-22T04:17:08;22.17;;;5.53;;
77955;SDS011;67152;36.266;32.294;2023-07-22T04:19:35;21.73;;;5.32;;
77955;SDS011;67152;36.266;32.294;2023-07-22T04:22:01;17.77;;;4.60;;
77955;SDS011;67152;36.266;32.294;2023-07-22T04:24:30;23.02;;;5.53;;
77955;SDS011;67152;36.266;32.294;2023-07-22T04:26:57;19.08;;;4.28;;
77955;SDS011;67152;36.266;32.294;2023-07-22T04:29:23;20.00;;;5.20;;
77955;SDS011;67152;36.266;32.294;2023-07-22T04:31:50;20.13;;;4.82;;
77955;SDS011;67152;36.266;32.294;2023-07-22T04:34:16;19.20;;;5.15;;
77955;SDS011;67152;36.266;32.294;2023-07-22T04:36:43;30.00;;;6.13;;
77955;SDS011;67152;36.266;32.294;2023-07-22T04:39:09;21.52;;;4.90;;
77955;SDS011;67152;36.266;32.294;2023-07-22T04:41:36;36.88;;;6.05;;
77955;SDS011;67152;36.266;32.294;2023-07-22T04:44:02;26.33;;;5.25;;
77955;SDS011;67152;36.266;32.294;2023-07-22T04:48:56;25.75;;;6.15;;
77955;SDS011;67152;36.266;32.294;2023-07-22T04:51:23;17.75;;;5.18;;
77955;SDS011;67152;36.266;32.294;2023-07-22T04:53:50;14.57;;;5.53;;
77955;SDS011;67152;36.266;32.294;2023-07-22T04:56:16;21.70;;;6.00;;
77955;SDS011;67152;36.266;32.294;2023-07-22T04:58:43;14.93;;;5.15;;
77955;SDS011;67152;36.266;32.294;2023-07-22T05:01:09;17.85;;;5.22;;
77955;SDS011;67152;36.266;32.294;2023-07-22T05:03:36;13.02;;;5.40;;
77955;SDS011;67152;36.266;32.294;2023-07-22T05:06:02;21.77;;;5.95;;
77955;SDS011;67152;36.266;32.294;2023-07-22T05:08:29;21.77;;;5.43;;
77955;SDS011;67152;36.266;32.294;2023-07-22T05:10:56;20.63;;;6.57;;
77955;SDS011;67152;36.266;32.294;2023-07-22T05:13:23;22.88;;;6.40;;
77955;SDS011;67152;36.266;32.294;2023-07-22T05:15:50;26.00;;;6.55;;
77955;SDS011;67152;36.266;32.294;2023-07-22T05:18:16;20.52;;;6.47;;
77955;SDS011;67152;36.266;32.294;2023-07-22T05:20:42;39.88;;;7.10;;
77955;SDS011;67152;36.266;32.294;2023-07-22T05:25:35;25.17;;;7.03;;
77955;SDS011;67152;36.266;32.294;2023-07-22T05:28:01;36.88;;;7.38;;
77955;SDS011;67152;36.266;32.294;2023-07-22T05:30:28;22.10;;;6.32;;
77955;SDS011;67152;36.266;32.294;2023-07-22T05:32:54;27.55;;;6.35;;
77955;SDS011;67152;36.266;32.294;2023-07-22T05:35:21;29.83;;;6.20;;
77955;SDS011;67152;36.266;32.294;2023-07-22T05:37:47;18.58;;;5.85;;
77955;SDS011;67152;36.266;32.294;2023-07-22T05:40:14;19.58;;;5.95;;
77955;SDS011;67152;36.266;32.294;2023-07-22T05:42:40;27.73;;;5.97;;
77955;SDS011;67152;36.266;32.294;2023-07-22T05:45:07;21.52;;;5.55;;
77955;SDS011;67152;36.266;32.294;2023-07-22T05:47:34;25.00;;;6.18;;
77955;SDS011;67152;36.266;32.294;2023-07-22T05:50:00;32.70;;;6.63;;
77955;SDS011;67152;36.266;32.294;2023-07-22T05:52:27;12.35;;;5.05;;
77955;SDS011;67152;36.266;32.294;2023-07-22T05:54:53;13.10;;;3.88;;
77955;SDS011;67152;36.266;32.294;2023-07-22T05:57:20;15.25;;;4.93;;
77955;SDS011;67152;36.266;32.294;2023-07-22T05:59:46;22.52;;;4.65;;
77955;SDS011;67152;36.266;32.294;2023-07-22T06:02:13;10.63;;;4.15;;
77955;SDS011;67152;36.266;32.294;2023-07-22T06:04:39;18.48;;;4.38;;
77955;SDS011;67152;36.266;32.294;2023-07-22T06:07:06;6.22;;;3.92;;
77955;SDS011;67152;36.266;32.294;2023-07-22T06:09:32;17.75;;;4.45;;
77955;SDS011;67152;36.266;32.294;2023-07-22T06:11:59;16.83;;;4.30;;
77955;SDS011;67152;36.266;32.294;2023-07-22T06:14:25;10.93;;;4.60;;
77955;SDS011;67152;36.266;32.294;2023-07-22T06:16:52;16.08;;;4.20;;
77955;SDS011;67152;36.266;32.294;2023-07-22T06:19:19;11.48;;;4.65;;
77955;SDS011;67152;36.266;32.294;2023-07-22T06:21:45;9.27;;;4.13;;
77955;SDS011;67152;36.266;32.294;2023-07-22T06:24:12;12.10;;;3.97;;
77955;SDS011;67152;36.266;32.294;2023-07-22T06:26:38;21.25;;;4.15;;
77955;SDS011;67152;36.266;32.294;2023-07-22T06:29:05;10.38;;;4.35;;
77955;SDS011;67152;36.266;32.294;2023-07-22T06:31:32;13.88;;;4.22;;
77955;SDS011;67152;36.266;32.294;2023-07-22T06:33:58;28.38;;;4.97;;
77955;SDS011;67152;36.266;32.294;2023-07-22T06:36:26;14.63;;;4.80;;
77955;SDS011;67152;36.266;32.294;2023-07-22T06:38:52;29.58;;;4.80;;
77955;SDS011;67152;36.266;32.294;2023-07-22T06:41:20;12.52;;;4.03;;
77955;SDS011;67152;36.266;32.294;2023-07-22T06:43:49;15.55;;;4.80;;
77955;SDS011;67152;36.266;32.294;2023-07-22T06:46:16;24.63;;;5.15;;
77955;SDS011;67152;36.266;32.294;2023-07-22T06:48:42;10.85;;;4.15;;
77955;SDS011;67152;36.266;32.294;2023-07-22T06:51:09;10.23;;;4.28;;
77955;SDS011;67152;36.266;32.294;2023-07-22T06:53:36;10.25;;;3.95;;
77955;SDS011;67152;36.266;32.294;2023-07-22T06:56:02;8.65;;;4.13;;
77955;SDS011;67152;36.266;32.294;2023-07-22T06:58:29;16.08;;;4.65;;
77955;SDS011;67152;36.266;32.294;2023-07-22T07:00:56;11.77;;;4.60;;
77955;SDS011;67152;36.266;32.294;2023-07-22T07:03:22;19.67;;;4.68;;
77955;SDS011;67152;36.266;32.294;2023-07-22T07:05:55;10.90;;;4.47;;
77955;SDS011;67152;36.266;32.294;2023-07-22T07:08:22;11.50;;;4.30;;
77955;SDS011;67152;36.266;32.294;2023-07-22T07:10:49;18.52;;;4.43;;
77955;SDS011;67152;36.266;32.294;2023-07-22T07:13:16;12.07;;;4.63;;
77955;SDS011;67152;36.266;32.294;2023-07-22T07:15:47;9.00;;;4.05;;
77955;SDS011;67152;36.266;32.294;2023-07-22T07:18:16;19.08;;;4.65;;
77955;SDS011;67152;36.266;32.294;2023-07-22T07:20:44;18.27;;;4.93;;
77955;SDS011;67152;36.266;32.294;2023-07-22T07:23:10;12.40;;;4.32;;
77955;SDS011;67152;36.266;32.294;2023-07-22T07:25:37;35.10;;;5.30;;
77955;SDS011;67152;36.266;32.294;2023-07-22T07:28:04;11.40;;;5.03;;
77955;SDS011;67152;36.266;32.294;2023-07-22T07:30:31;15.48;;;4.78;;
77955;SDS011;67152;36.266;32.294;2023-07-22T07:32:58;12.70;;;4.50;;
77955;SDS011;67152;36.266;32.294;2023-07-22T07:35:26;18.17;;;5.40;;
77955;SDS011;67152;36.266;32.294;2023-07-22T07:37:52;17.73;;;4.68;;
77955;SDS011;67152;36.266;32.294;2023-07-22T07:42:45;16.92;;;5.45;;
77955;SDS011;67152;36.266;32.294;2023-07-22T07:45:12;12.18;;;5.30;;
77955;SDS011;67152;36.266;32.294;2023-07-22T07:47:39;33.75;;;7.20;;
77955;SDS011;67152;36.266;32.294;2023-07-22T07:50:06;35.03;;;5.97;;
77955;SDS011;67152;36.266;32.294;2023-07-22T07:52:33;17.48;;;4.55;;
77955;SDS011;67152;36.266;32.294;2023-07-22T07:54:59;22.58;;;6.25;;
77955;SDS011;67152;36.266;32.294;2023-07-22T07:57:26;23.55;;;5.57;;
77955;SDS011;67152;36.266;32.294;2023-07-22T07:59:53;15.20;;;5.32;;
77955;SDS011;67152;36.266;32.294;2023-07-22T08:04:45;11.02;;;4.60;;
77955;SDS011;67152;36.266;32.294;2023-07-22T08:07:14;23.90;;;6.15;;
77955;SDS011;67152;36.266;32.294;2023-07-22T08:09:43;20.23;;;5.68;;
77955;SDS011;67152;36.266;32.294;2023-07-22T08:12:09;34.35;;;6.07;;
77955;SDS011;67152;36.266;32.294;2023-07-22T08:14:36;18.95;;;6.72;;
77955;SDS011;67152;36.266;32.294;2023-07-22T08:17:02;16.75;;;5.90;;
77955;SDS011;67152;36.266;32.294;2023-07-22T08:19:29;17.27;;;5.65;;
77955;SDS011;67152;36.266;32.294;2023-07-22T08:22:14;18.83;;;5.20;;
77955;SDS011;67152;36.266;32.294;2023-07-22T08:24:41;27.02;;;5.55;;
77955;SDS011;67152;36.266;32.294;2023-07-22T08:27:07;13.90;;;6.80;;
77955;SDS011;67152;36.266;32.294;2023-07-22T08:29:34;18.50;;;6.40;;
77955;SDS011;67152;36.266;32.294;2023-07-22T08:32:02;17.20;;;6.32;;
77955;SDS011;67152;36.266;32.294;2023-07-22T08:34:28;23.95;;;6.65;;
77955;SDS011;67152;36.266;32.294;2023-07-22T08:36:55;19.52;;;6.10;;
77955;SDS011;67152;36.266;32.294;2023-07-22T08:39:22;20.00;;;5.95;;
77955;SDS011;67152;36.266;32.294;2023-07-22T08:41:49;31.27;;;6.63;;
77955;SDS011;67152;36.266;32.294;2023-07-22T08:44:18;24.48;;;6.55;;
77955;SDS011;67152;36.266;32.294;2023-07-22T08:46:46;12.85;;;5.97;;
77955;SDS011;67152;36.266;32.294;2023-07-22T08:49:13;16.77;;;6.63;;
77955;SDS011;67152;36.266;32.294;2023-07-22T08:51:40;13.38;;;5.82;;
77955;SDS011;67152;36.266;32.294;2023-07-22T08:54:06;20.10;;;5.78;;
77955;SDS011;67152;36.266;32.294;2023-07-22T08:56:33;21.63;;;6.68;;
77955;SDS011;67152;36.266;32.294;2023-07-22T08:59:00;38.45;;;6.22;;
77955;SDS011;67152;36.266;32.294;2023-07-22T09:01:26;12.38;;;6.18;;
77955;SDS011;67152;36.266;32.294;2023-07-22T09:03:54;15.75;;;5.93;;
77955;SDS011;67152;36.266;32.294;2023-07-22T09:06:22;14.30;;;6.35;;
77955;SDS011;67152;36.266;32.294;2023-07-22T09:08:49;13.77;;;6.47;;
77955;SDS011;67152;36.266;32.294;2023-07-22T09:11:16;15.57;;;6.53;;
77955;SDS011;67152;36.266;32.294;2023-07-22T09:13:44;13.15;;;6.03;;
77955;SDS011;67152;36.266;32.294;2023-07-22T09:16:14;18.77;;;6.40;;
77955;SDS011;67152;36.266;32.294;2023-07-22T09:18:42;16.70;;;6.57;;
77955;SDS011;67152;36.266;32.294;2023-07-22T09:21:08;15.32;;;7.40;;
77955;SDS011;67152;36.266;32.294;2023-07-22T09:23:35;19.02;;;5.60;;
77955;SDS011;67152;36.266;32.294;2023-07-22T09:26:09;27.02;;;6.60;;
77955;SDS011;67152;36.266;32.294;2023-07-22T09:28:52;16.10;;;6.57;;
77955;SDS011;67152;36.266;32.294;2023-07-22T09:31:26;10.95;;;5.50;;
77955;SDS011;67152;36.266;32.294;2023-07-22T09:33:54;14.73;;;6.65;;
77955;SDS011;67152;36.266;32.294;2023-07-22T11:12:01;18.77;;;6.78;;
77955;SDS011;67152;36.266;32.294;2023-07-22T11:14:51;15.95;;;6.13;;
77955;SDS011;67152;36.266;32.294;2023-07-22T11:17:27;20.80;;;6.68;;
77955;SDS011;67152;36.266;32.294;2023-07-22T11:19:58;12.85;;;6.30;;
77955;SDS011;67152;36.266;32.294;2023-07-22T11:22:26;11.68;;;6.07;;
77955;SDS011;67152;36.266;32.294;2023-07-22T11:24:55;19.02;;;6.03;;
77955;SDS011;67152;36.266;32.294;2023-07-22T11:27:43;15.20;;;6.50;;
77955;SDS011;67152;36.266;32.294;2023-07-22T11:30:10;14.25;;;6.72;;
77955;SDS011;67152;36.266;32.294;2023-07-22T11:32:41;11.38;;;6.15;;
77955;SDS011;67152;36.266;32.294;2023-07-22T11:35:08;13.80;;;6.30;;
77955;SDS011;67152;36.266;32.294;2023-07-22T11:37:35;13.55;;;6.70;;
77955;SDS011;67152;36.266;32.294;2023-07-22T11:40:01;13.35;;;6.32;;
77955;SDS011;67152;36.266;32.294;2023-07-22T11:42:28;14.18;;;6.30;;
77955;SDS011;67152;36.266;32.294;2023-07-22T11:44:55;13.85;;;6.82;;
77955;SDS011;67152;36.266;32.294;2023-07-22T11:47:28;13.90;;;6.80;;
77955;SDS011;67152;36.266;32.294;2023-07-22T11:49:56;15.65;;;6.60;;
77955;SDS011;67152;36.266;32.294;2023-07-22T11:52:23;16.80;;;6.45;;
77955;SDS011;67152;36.266;32.294;2023-07-22T11:54:50;10.82;;;6.85;;
77955;SDS011;67152;36.266;32.294;2023-07-22T12:05:03;21.88;;;7.43;;
77955;SDS011;67152;36.266;32.294;2023-07-22T12:07:34;19.33;;;7.40;;
77955;SDS011;67152;36.266;32.294;2023-07-22T12:10:03;11.20;;;6.35;;
77955;SDS011;67152;36.266;32.294;2023-07-22T12:12:43;13.10;;;6.43;;
77955;SDS011;67152;36.266;32.294;2023-07-22T12:15:13;12.07;;;6.40;;
77955;SDS011;67152;36.266;32.294;2023-07-22T12:17:45;9.60;;;6.18;;
77955;SDS011;67152;36.266;32.294;2023-07-22T12:20:19;11.60;;;5.97;;
77955;SDS011;67152;36.266;32.294;2023-07-22T12:22:53;19.60;;;6.00;;
77955;SDS011;67152;36.266;32.294;2023-07-22T12:25:20;14.85;;;5.57;;
77955;SDS011;67152;36.266;32.294;2023-07-22T12:27:47;28.55;;;6.38;;
77955;SDS011;67152;36.266;32.294;2023-07-22T12:30:32;23.58;;;6.70;;
77955;SDS011;67152;36.266;32.294;2023-07-22T12:33:00;31.95;;;6.35;;
77955;SDS011;67152;36.266;32.294;2023-07-22T12:35:27;10.75;;;5.50;;
77955;SDS011;67152;36.266;32.294;2023-07-22T12:37:55;17.17;;;6.13;;
77955;SDS011;67152;36.266;32.294;2023-07-22T12:40:22;13.88;;;6.03;;
77955;SDS011;67152;36.266;32.294;2023-07-22T12:42:49;12.02;;;5.53;;
77955;SDS011;67152;36.266;32.294;2023-07-22T12:45:35;15.32;;;5.55;;
77955;SDS011;67152;36.266;32.294;2023-07-22T12:48:02;9.25;;;5.38;;
77955;SDS011;67152;36.266;32.294;2023-07-22T12:50:31;16.55;;;5.88;;
77955;SDS011;67152;36.266;32.294;2023-07-22T12:52:58;13.23;;;5.53;;
77955;SDS011;67152;36.266;32.294;2023-07-22T12:55:25;9.02;;;5.10;;
77955;SDS011;67152;36.266;32.294;2023-07-22T12:57:52;11.45;;;5.65;;
77955;SDS011;67152;36.266;32.294;2023-07-22T13:00:25;12.95;;;6.32;;
77955;SDS011;67152;36.266;32.294;2023-07-22T13:02:54;21.77;;;5.95;;
77955;SDS011;67152;36.266;32.294;2023-07-22T13:05:31;11.95;;;6.25;;
77955;SDS011;67152;36.266;32.294;2023-07-22T13:08:18;9.70;;;5.75;;
77955;SDS011;67152;36.266;32.294;2023-07-22T13:10:44;20.10;;;6.78;;
77955;SDS011;67152;36.266;32.294;2023-07-22T13:13:14;14.48;;;6.43;;
77955;SDS011;67152;36.266;32.294;2023-07-22T13:15:42;13.05;;;6.55;;
77955;SDS011;67152;36.266;32.294;2023-07-22T13:18:10;9.50;;;6.65;;
77955;SDS011;67152;36.266;32.294;2023-07-22T13:20:39;11.27;;;6.82;;
77955;SDS011;67152;36.266;32.294;2023-07-22T13:23:06;22.60;;;7.50;;
77955;SDS011;67152;36.266;32.294;2023-07-22T13:25:33;12.30;;;6.78;;
77955;SDS011;67152;36.266;32.294;2023-07-22T13:27:59;10.13;;;6.80;;
77955;SDS011;67152;36.266;32.294;2023-07-22T13:30:26;12.32;;;6.53;;
77955;SDS011;67152;36.266;32.294;2023-07-22T13:32:56;11.30;;;6.63;;
77955;SDS011;67152;36.266;32.294;2023-07-22T13:35:22;12.55;;;7.35;;
77955;SDS011;67152;36.266;32.294;2023-07-22T13:37:49;16.35;;;7.50;;
77955;SDS011;67152;36.266;32.294;2023-07-22T13:40:16;14.00;;;6.50;;
77955;SDS011;67152;36.266;32.294;2023-07-22T13:42:43;12.75;;;6.72;;
77955;SDS011;67152;36.266;32.294;2023-07-22T13:45:10;12.07;;;5.97;;
77955;SDS011;67152;36.266;32.294;2023-07-22T13:47:37;11.05;;;6.47;;
77955;SDS011;67152;36.266;32.294;2023-07-22T13:50:04;10.65;;;5.72;;
77955;SDS011;67152;36.266;32.294;2023-07-22T13:52:51;13.88;;;5.88;;
77955;SDS011;67152;36.266;32.294;2023-07-22T13:57:44;8.27;;;5.63;;
77955;SDS011;67152;36.266;32.294;2023-07-22T14:00:10;12.85;;;6.03;;
77955;SDS011;67152;36.266;32.294;2023-07-22T14:02:37;14.50;;;6.68;;
77955;SDS011;67152;36.266;32.294;2023-07-22T14:05:04;10.93;;;6.35;;
77955;SDS011;67152;36.266;32.294;2023-07-22T14:07:31;14.85;;;6.40;;
77955;SDS011;67152;36.266;32.294;2023-07-22T14:12:24;16.48;;;6.65;;
77955;SDS011;67152;36.266;32.294;2023-07-22T14:14:51;13.43;;;6.85;;
77955;SDS011;67152;36.266;32.294;2023-07-22T14:17:17;21.23;;;7.22;;
77955;SDS011;67152;36.266;32.294;2023-07-22T14:22:10;19.95;;;7.68;;
77955;SDS011;67152;36.266;32.294;2023-07-22T14:24:37;21.00;;;7.00;;
77955;SDS011;67152;36.266;32.294;2023-07-22T14:29:30;18.40;;;6.90;;
77955;SDS011;67152;36.266;32.294;2023-07-22T14:31:57;14.88;;;6.72;;
77955;SDS011;67152;36.266;32.294;2023-07-22T14:38:05;20.02;;;6.57;;
77955;SDS011;67152;36.266;32.294;2023-07-22T14:40:32;16.45;;;6.05;;
77955;SDS011;67152;36.266;32.294;2023-07-22T14:55:10;29.45;;;9.98;;
77955;SDS011;67152;36.266;32.294;2023-07-22T14:57:36;27.05;;;6.50;;
77955;SDS011;67152;36.266;32.294;2023-07-22T15:02:30;15.05;;;4.97;;
77955;SDS011;67152;36.266;32.294;2023-07-22T15:04:57;6.85;;;4.35;;
77955;SDS011;67152;36.266;32.294;2023-07-22T15:09:51;13.98;;;5.10;;
77955;SDS011;67152;36.266;32.294;2023-07-22T15:12:19;17.42;;;6.03;;
77955;SDS011;67152;36.266;32.294;2023-07-22T15:14:46;11.05;;;5.38;;
77955;SDS011;67152;36.266;32.294;2023-07-22T15:24:31;13.77;;;5.28;;
77955;SDS011;67152;36.266;32.294;2023-07-22T15:26:58;22.48;;;6.10;;
77955;SDS011;67152;36.266;32.294;2023-07-22T15:36:43;12.15;;;4.72;;
77955;SDS011;67152;36.266;32.294;2023-07-22T15:39:09;11.82;;;6.07;;
77955;SDS011;67152;36.266;32.294;2023-07-22T15:41:38;13.40;;;5.47;;
77955;SDS011;67152;36.266;32.294;2023-07-22T15:44:05;37.75;;;6.68;;
77955;SDS011;67152;36.266;32.294;2023-07-22T15:46:31;10.73;;;5.60;;
77955;SDS011;67152;36.266;32.294;2023-07-22T15:48:58;9.27;;;5.07;;
77955;SDS011;67152;36.266;32.294;2023-07-22T15:51:24;12.63;;;5.70;;
77955;SDS011;67152;36.266;32.294;2023-07-22T15:53:51;9.35;;;5.40;;
77955;SDS011;67152;36.266;32.294;2023-07-22T15:58:44;14.38;;;6.15;;
77955;SDS011;67152;36.266;32.294;2023-07-22T16:01:10;16.60;;;6.80;;
77955;SDS011;67152;36.266;32.294;2023-07-22T16:08:29;15.88;;;5.63;;
77955;SDS011;67152;36.266;32.294;2023-07-22T16:10:58;19.73;;;5.70;;
77955;SDS011;67152;36.266;32.294;2023-07-22T16:13:24;32.95;;;6.65;;
77955;SDS011;67152;36.266;32.294;2023-07-22T16:15:51;14.65;;;6.35;;
77955;SDS011;67152;36.266;32.294;2023-07-22T16:20:44;11.05;;;5.57;;
77955;SDS011;67152;36.266;32.294;2023-07-22T16:25:36;11.23;;;5.65;;
77955;SDS011;67152;36.266;32.294;2023-07-22T16:28:03;16.08;;;6.93;;
77955;SDS011;67152;36.266;32.294;2023-07-22T16:30:29;12.73;;;7.03;;
77955;SDS011;67152;36.266;32.294;2023-07-22T16:32:56;13.38;;;6.03;;
77955;SDS011;67152;36.266;32.294;2023-07-22T16:40:15;11.13;;;6.25;;
77955;SDS011;67152;36.266;32.294;2023-07-22T16:42:42;20.52;;;7.10;;
77955;SDS011;67152;36.266;32.294;2023-07-22T16:47:53;19.15;;;6.65;;
77955;SDS011;67152;36.266;32.294;2023-07-22T16:50:20;13.40;;;6.15;;
77955;SDS011;67152;36.266;32.294;2023-07-22T16:52:47;13.25;;;7.28;;
77955;SDS011;67152;36.266;32.294;2023-07-22T16:55:13;21.83;;;7.78;;
77955;SDS011;67152;36.266;32.294;2023-07-22T16:57:40;13.23;;;7.65;;
77955;SDS011;67152;36.266;32.294;2023-07-22T17:00:07;14.07;;;7.15;;
77955;SDS011;67152;36.266;32.294;2023-07-22T17:02:44;14.00;;;7.13;;
77955;SDS011;67152;36.266;32.294;2023-07-22T17:05:11;12.70;;;6.35;;
77955;SDS011;67152;36.266;32.294;2023-07-22T17:07:39;18.38;;;6.85;;
77955;SDS011;67152;36.266;32.294;2023-07-22T17:10:07;12.48;;;6.03;;
77955;SDS011;67152;36.266;32.294;2023-07-22T17:12:34;13.43;;;6.18;;
77955;SDS011;67152;36.266;32.294;2023-07-22T17:15:03;14.80;;;6.85;;
77955;SDS011;67152;36.266;32.294;2023-07-22T17:17:30;39.50;;;8.52;;
77955;SDS011;67152;36.266;32.294;2023-07-22T17:19:57;13.60;;;6.32;;
77955;SDS011;67152;36.266;32.294;2023-07-22T17:22:24;21.00;;;7.32;;
77955;SDS011;67152;36.266;32.294;2023-07-22T17:24:50;10.98;;;6.78;;
77955;SDS011;67152;36.266;32.294;2023-07-22T17:27:17;19.20;;;7.50;;
77955;SDS011;67152;36.266;32.294;2023-07-22T17:29:43;15.45;;;6.35;;
77955;SDS011;67152;36.266;32.294;2023-07-22T17:32:10;14.05;;;6.18;;
77955;SDS011;67152;36.266;32.294;2023-07-22T17:34:37;16.13;;;6.75;;
77955;SDS011;67152;36.266;32.294;2023-07-22T17:37:03;23.25;;;8.15;;
77955;SDS011;67152;36.266;32.294;2023-07-22T17:39:30;21.52;;;8.38;;